ADDS METAR Data INFO
IDs: Format: Raw Decoded Include TAF

Data at: 1828 UTC 22 Nov 2017

METAR for:LFST (Strasbourg/Entzheim, --, FR)
Text:LFST 221800Z AUTO 18003KT 170V240 CAVOK 09/05 Q1010 NOSIG
Temperature: 9.0°C ( 48°F)
Dewpoint: 5.0°C ( 41°F) [RH = 76%]
Pressure (altimeter):29.82 inches Hg (1010.0 mb)
Winds:from the S (180 degrees) at 3 MPH (3 knots; 1.5 m/s)
Visibility:6 or more sm (10+ km)
Ceiling:ceiling and visibility are OK
Clouds:unknown

TAF for:LFST (Strasbourg/Entzheim, --, FR) issued at 1700 UTC 22 Nov 2017
Text:TAF LFST 221700Z 2218/2318 17007KT CAVOK
Forecast period:1800 UTC 22 November 2017 to 0300 UTC 23 November 2017
Forecast type:FROM: standard forecast or significant change
Winds:from the S (170 degrees) at 8 MPH (7 knots; 3.6 m/s)
Visibility:6 or more sm (10+ km)
Clouds:missing
Weather:NSW (no significant weather)
Text:BECMG 2303/2306 20012G22KT
Forecast period:0300 to 1800 UTC 23 November 2017
Forecast type:BECOMING: Conditions expected to become as follows by 0600 UTC 23 November 2017
Winds:from the SSW (200 degrees) at 14 MPH (12 knots; 6.2 m/s) gusting to 25 MPH (22 knots; 11.3 m/s)
Visibility:6 or more sm (10+ km)
Clouds:missing
Weather:NSW (no significant weather)